Grassy Lake, Canada
Current Conditions -  °F | °C
As of 9:00 AM on Saturday 22 Nov 2014 (Local Time) from CYXH Reporting Station
Broken Clouds Broken Clouds  
Wind Chill: 29°   Ceiling: 8000
Heat Index: 39°   Visibility: 30mi
Dew Point: 34°   Wind: 21mph
Humidity: 81%   Direction: 210°SSW
Pressure: 29.07"   Gusts: 28mph
Location:  49.83°N, 111.7°W
Report Text: CYXH 221600Z 21018G24KT 30SM BKN080 04/01 A2907 RMK AC7 SLP862 DENSITY ALT 2600FT
Loading
Personal Weather Stations






























Interactive Weather Map New forecast layout! Learn more

10-Day Weather Forecast

Advertisements
Track Severe Weather on mobile